D/T METAR WX W/DIR W/SPE G/SPE TEMP DEWP
22/01/20 06:50 EGPD 220650Z AUTO 33005KT 9999 NCD 09/07 Q1034 NOSIG NNW (330°) 5.8mph 9°C 7°C
22/01/20 06:20 EGPD 220620Z AUTO 31009KT 9999 NCD 10/07 Q1033 NOSIG NW (310°) 10.4mph 10°C 7°C
22/01/20 05:50 EGPD 220550Z AUTO 29009KT 9999 SCT042 SCT048 11/08 Q1033 NOSIG WNW (290°) 10.4mph 11°C 8°C
22/01/20 05:20 EGPD 220520Z AUTO 28006KT 9999 BKN048 11/08 Q1034 NOSIG W (280°) 6.9mph 11°C 8°C
22/01/20 04:50 EGPD 220450Z AUTO 24004KT 9999 OVC047 10/08 Q1034 NOSIG WSW (240°) 4.6mph 10°C 8°C
22/01/20 04:20 EGPD 220420Z AUTO 27005KT 230V310 9999 SCT045 10/08 Q1034 NOSIG W (270°) 5.8mph 10°C 8°C
22/01/20 03:50 EGPD 220350Z AUTO VRB02KT 9000 NCD 09/08 Q1034 TEMPO 4000 BR N (0°) 2.3mph 9°C 8°C
22/01/20 03:20 EGPD 220320Z AUTO 07001KT 7000 BKN045 09/08 Q1034 TEMPO 4000 BR ENE (70°) 1.2mph 9°C 8°C
22/01/20 02:50 EGPD 220250Z AUTO VRB01KT 7000 SCT025 OVC043 08/07 Q1034 TEMPO 4000 BR N (0°) 1.2mph 8°C 7°C
22/01/20 02:20 EGPD 220220Z VRB01KT 9000 OVC028 07/07 Q1034 TEMPO 4000 BR N (0°) 1.2mph 7°C 7°C
22/01/20 01:50 EGPD 220150Z AUTO 03002KT 6000 OVC035 08/07 Q1034 TEMPO 4000 BR NNE (30°) 2.3mph 8°C 7°C
22/01/20 01:20 EGPD 220120Z AUTO VRB02KT 4700 BR BKN041 08/08 Q1034 BR N (0°) 2.3mph 8°C 8°C
22/01/20 00:50 EGPD 220050Z AUTO 33001KT 1900 -RA FEW016 SCT036 BKN047 07/06 Q1034 TEMPO 1200 BR BKN003 -RA NNW (330°) 1.2mph 7°C 6°C
22/01/20 00:20 EGPD 220020Z AUTO 36001KT 1800 BR BKN032 BKN045 07/06 Q1035 BR N (360°) 1.2mph 7°C 6°C
21/01/20 23:50 EGPD 212350Z AUTO VRB01KT 0450 FG FEW001 BKN034 BKN048 07/07 Q1035 TEMPO 2500 BR FG N (0°) 1.2mph 7°C 7°C
21/01/20 23:20 EGPD 212320Z AUTO 00000KT 1700 -RA SCT028 BKN036 BKN048 07/06 Q1034 TEMPO 4000 BR -RA N (0°) 7°C 6°C
21/01/20 22:50 EGPD 212250Z AUTO VRB01KT 4800 BR FEW001 SCT031 BKN039 07/06 Q1034 BR N (0°) 1.2mph 7°C 6°C
21/01/20 22:20 EGPD 212220Z AUTO VRB03KT 0750 R34/1400 FG SCT001 BKN014 BKN026 07/07 Q1034 NOSIG FG N (0°) 3.5mph 7°C 7°C
21/01/20 21:50 EGPD 212150Z 13003KT 4500 BR SCT004 BKN028 07/07 Q1035 TEMPO 6000 NSW BR SE (130°) 3.5mph 7°C 7°C
21/01/20 21:20 EGPD 212120Z AUTO 14003KT 5000 BR FEW002 SCT019 BKN023 07/07 Q1035 NOSIG BR SE (140°) 3.5mph 7°C 7°C
21/01/20 20:20 EGPD 212020Z VRB03KT 4800 BR BKN003 07/07 Q1035 TEMPO 6000 -DZ SCT003 BR N (0°) 3.5mph 7°C 7°C
21/01/20 19:50 EGPD 211950Z 19004KT 4500 -DZ BR BKN003 08/07 Q1035 TEMPO 6000 SCT003 -DZ BR S (190°) 4.6mph 8°C 7°C
21/01/20 19:20 EGPD 211920Z 16003KT 2500 BR OVC003 08/07 Q1035 NOSIG BR SSE (160°) 3.5mph 8°C 7°C
21/01/20 18:50 EGPD 211850Z 12002KT 5000 BR BKN004 08/07 Q1035 NOSIG BR ESE (120°) 2.3mph 8°C 7°C
21/01/20 18:20 EGPD 211820Z 17002KT 6000 BKN004 08/07 Q1035 TEMPO 4000 RADZ S (170°) 2.3mph 8°C 7°C
21/01/20 17:50 EGPD 211750Z VRB01KT 8000 BKN005 08/07 Q1035 TEMPO SCT005 N (0°) 1.2mph 8°C 7°C
21/01/20 17:20 EGPD 211720Z VRB03KT 8000 BKN005 BKN019 08/07 Q1035 N (0°) 3.5mph 8°C 7°C
21/01/20 16:50 EGPD 211650Z VRB02KT 9999 BKN021 08/07 Q1034 N (0°) 2.3mph 8°C 7°C
21/01/20 16:20 EGPD 211620Z 08004KT 300V110 9999 BKN026 09/07 Q1034 NOSIG E (80°) 4.6mph 9°C 7°C
21/01/20 15:20 EGPD 211520Z VRB03KT 9999 FEW027 11/08 Q1034 N (0°) 3.5mph 11°C 8°C
21/01/20 14:50 EGPD 211450Z VRB01KT 9999 FEW031 08/07 Q1034 NOSIG N (0°) 1.2mph 8°C 7°C
21/01/20 14:20 EGPD 211420Z VRB03KT 9999 VCFG SCT029 09/07 Q1034 NOSIG VCFG N (0°) 3.5mph 9°C 7°C
21/01/20 13:50 EGPD 211350Z VRB02KT 9999 VCFG SCT029 09/07 Q1035 NOSIG VCFG N (0°) 2.3mph 9°C 7°C
21/01/20 13:20 EGPD 211320Z VRB02KT 9999 VCFG SCT031 09/07 Q1035 NOSIG VCFG N (0°) 2.3mph 9°C 7°C
21/01/20 12:50 EGPD 211250Z VRB02KT 9999 0550N PRFG VCFG FEW001 09/08 Q1035 NOSIG VCFG PRFG N (0°) 2.3mph 9°C 8°C
21/01/20 12:20 EGPD 211220Z VRB02KT 6000 2500N VCFG FEW001 09/08 Q1035 VCFG N (0°) 2.3mph 9°C 8°C
21/01/20 11:20 EGPD 211120Z 16004KT 0400 R16/0450 FG VV/// 07/07 Q1036 FG SSE (160°) 4.6mph 7°C 7°C
21/01/20 10:50 EGPD 211050Z 18004KT 1600 0750SW R16/P1500 BCFG BKN001 07/07 Q1036 TEMPO 0500 FG BCFG S (180°) 4.6mph 7°C 7°C
21/01/20 10:50 EGPD 211050Z 18004KT 1600 0750SW R16/P1500 BCFG BKN001 07/07 Q1036 BCFG S (180°) 4.6mph 7°C 7°C
21/01/20 09:50 EGPD 210950Z VRB01KT 9999 VCFG NSC 08/06 Q1036 TEMPO 2000 DZ BKN003 VCFG N (0°) 1.2mph 8°C 6°C
21/01/20 09:20 EGPD 210920Z AUTO 05004KT 010V080 9999 NCD 07/05 Q1036 NOSIG NE (50°) 4.6mph 7°C 5°C
21/01/20 08:50 EGPD 210850Z AUTO VRB03KT 9999 NCD 07/05 Q1035 NOSIG N (0°) 3.5mph 7°C 5°C
21/01/20 08:20 EGPD 210820Z AUTO 30006KT 9999 NCD 08/05 Q1035 NOSIG WNW (300°) 6.9mph 8°C 5°C
21/01/20 07:50 EGPD 210750Z AUTO 27007KT 250V340 9999 NCD 08/05 Q1035 NOSIG W (270°) 8.1mph 8°C 5°C
21/01/20 07:20 EGPD 210720Z AUTO 27008KT 220V290 9999 NCD 09/06 Q1035 W (270°) 9.2mph 9°C 6°C
21/01/20 06:50 EGPD 210650Z AUTO 25007KT 9999 NCD 09/06 Q1035 NOSIG WSW (250°) 8.1mph 9°C 6°C
21/01/20 06:20 EGPD 210620Z AUTO 27009KT 9999 NCD 10/07 Q1035 NOSIG W (270°) 10.4mph 10°C 7°C
21/01/20 05:50 EGPD 210550Z AUTO 28008KT 9999 NCD 10/06 Q1035 W (280°) 9.2mph 10°C 6°C